Time;durP1;ratioP1;P1;durP2;ratioP2;P2;SDS_P1;SDS_P2;PMS_P1;PMS_P2;Temp;Humidity;BMP_temperature;BMP_pressure;BME280_temperature;BME280_humidity;BME280_pressure;Samples;Min_cycle;Max_cycle;Signal;HPM_P1;HPM_P2
2023/01/13 00:01:45;;;;;;;1.70;0.85;;;;;;;8.76;100.00;98078.22;4137666;28;20240;-50
2023/01/13 00:03:47;;;;;;;1.10;1.00;;;;;;;8.73;100.00;98082.25;4136093;28;20232;-49
2023/01/13 00:05:49;;;;;;;1.35;0.93;;;;;;;8.76;100.00;98080.94;4135918;28;20328;-50
2023/01/13 00:07:51;;;;;;;1.25;0.98;;;;;;;8.77;100.00;98072.50;4133254;28;20217;-50
2023/01/13 00:09:53;;;;;;;1.40;1.27;;;;;;;8.75;100.00;98060.19;4153438;28;20205;-49
2023/01/13 00:11:55;;;;;;;3.58;0.77;;;;;;;8.77;100.00;98071.69;4133329;28;20237;-49
2023/01/13 00:13:57;;;;;;;0.75;0.75;;;;;;;8.83;100.00;98078.88;4132439;28;20301;-49
2023/01/13 00:16:03;;;;;;;1.48;1.30;;;;;;;8.85;100.00;98071.25;4133554;28;20278;-50
2023/01/13 00:18:05;;;;;;;2.78;1.33;;;;;;;8.84;100.00;98077.78;4137783;28;20213;-50
2023/01/13 00:20:09;;;;;;;0.93;0.90;;;;;;;8.81;100.00;98072.84;4141596;28;20729;-49
2023/01/13 00:22:11;;;;;;;1.40;1.15;;;;;;;8.80;100.00;98076.63;4138889;28;20356;-50
2023/01/13 00:24:13;;;;;;;1.23;1.13;;;;;;;8.81;100.00;98061.94;4122097;28;20728;-50
2023/01/13 00:26:18;;;;;;;1.42;1.10;;;;;;;8.82;100.00;98071.75;4136581;28;20208;-49
2023/01/13 00:28:20;;;;;;;1.15;0.90;;;;;;;8.77;100.00;98066.22;4140187;28;20241;-49
2023/01/13 00:30:21;;;;;;;1.48;1.38;;;;;;;8.79;100.00;98064.06;4135511;28;20234;-50
2023/01/13 00:32:23;;;;;;;1.20;1.15;;;;;;;8.81;100.00;98053.75;4122025;28;20225;-49
2023/01/13 00:34:25;;;;;;;1.35;1.15;;;;;;;8.77;100.00;98055.31;4138534;28;20206;-50
2023/01/13 00:36:28;;;;;;;1.00;1.00;;;;;;;8.84;100.00;98066.88;4137132;28;20293;-49
2023/01/13 00:38:31;;;;;;;1.75;1.10;;;;;;;8.83;100.00;98059.75;4137195;28;21920;-49
2023/01/13 00:40:33;;;;;;;2.20;1.25;;;;;;;8.78;100.00;98062.41;4136112;28;20259;-53
2023/01/13 00:44:55;;;;;;;1.42;1.33;;;;;;;8.73;100.00;98054.16;4139105;28;20623;-50
2023/01/13 00:46:57;;;;;;;2.25;0.93;;;;;;;8.73;100.00;98037.78;4137112;28;20242;-49
2023/01/13 00:48:59;;;;;;;1.50;1.10;;;;;;;8.71;100.00;98046.22;4136874;28;20356;-49
2023/01/13 00:51:11;;;;;;;1.38;0.82;;;;;;;8.70;100.00;98043.75;4140170;28;20229;-49
2023/01/13 00:53:13;;;;;;;1.35;0.70;;;;;;;8.73;100.00;98037.78;4137041;28;20253;-50
2023/01/13 00:55:15;;;;;;;1.15;1.00;;;;;;;8.71;100.00;98034.47;4137602;28;20552;-51
2023/01/13 00:57:17;;;;;;;1.30;1.20;;;;;;;8.67;100.00;98027.88;4138722;28;20214;-50
2023/01/13 00:59:19;;;;;;;0.90;0.90;;;;;;;8.71;100.00;98020.84;4140808;28;20213;-51
2023/01/13 01:01:23;;;;;;;1.10;1.10;;;;;;;8.73;100.00;98032.31;4140364;28;20256;-48
2023/01/13 01:03:25;;;;;;;1.00;1.00;;;;;;;8.75;100.00;98043.84;4138417;28;20241;-51
2023/01/13 01:05:27;;;;;;;0.95;0.80;;;;;;;8.75;100.00;98024.75;4139236;28;20773;-50
2023/01/13 01:07:28;;;;;;;11.10;0.90;;;;;;;8.73;100.00;98018.69;4138591;28;20210;-49
2023/01/13 01:09:33;;;;;;;1.92;1.83;;;;;;;8.77;100.00;98017.13;4139368;28;20217;-50
2023/01/13 01:11:36;;;;;;;0.73;0.73;;;;;;;8.75;100.00;98025.53;4137214;28;20256;-50
2023/01/13 01:13:38;;;;;;;1.10;1.10;;;;;;;8.70;100.00;98021.94;4122447;28;20287;-48
2023/01/13 01:15:40;;;;;;;4.07;2.03;;;;;;;8.69;100.00;98014.81;4131432;28;20671;-49
2023/01/13 01:17:42;;;;;;;0.93;0.88;;;;;;;8.73;100.00;98013.22;4136765;28;20633;-49
2023/01/13 01:19:44;;;;;;;0.70;0.70;;;;;;;8.72;100.00;98008.84;4151182;28;20232;-50
2023/01/13 01:21:46;;;;;;;0.80;0.80;;;;;;;8.68;100.00;98002.28;4153328;28;20793;-50
2023/01/13 01:23:48;;;;;;;0.77;0.68;;;;;;;8.67;100.00;98008.78;4121216;28;20221;-50
2023/01/13 01:25:50;;;;;;;0.80;0.80;;;;;;;8.71;100.00;98018.13;4138468;28;20244;-49
2023/01/13 01:27:53;;;;;;;0.73;0.73;;;;;;;8.70;100.00;98002.84;4125738;28;20213;-50
2023/01/13 01:29:55;;;;;;;1.10;1.08;;;;;;;8.70;100.00;98005.56;4135835;28;20214;-49
2023/01/13 01:31:57;;;;;;;0.77;0.77;;;;;;;8.73;100.00;97999.59;4135612;28;20249;-49
2023/01/13 01:34:00;;;;;;;1.65;0.85;;;;;;;8.72;100.00;98011.59;4136800;28;20288;-51
2023/01/13 01:36:03;;;;;;;0.90;0.90;;;;;;;8.78;100.00;97996.94;4136524;28;20224;-49
2023/01/13 01:38:05;;;;;;;1.17;1.17;;;;;;;8.79;100.00;97998.59;4136413;28;20205;-48
2023/01/13 01:40:08;;;;;;;1.38;1.10;;;;;;;8.81;100.00;97996.47;4133300;28;20843;-51
2023/01/13 01:44:40;;;;;;;0.90;0.90;;;;;;;8.79;100.00;97993.13;4129842;28;20307;-49
2023/01/13 01:46:43;;;;;;;0.70;0.70;;;;;;;8.85;100.00;98003.03;4136525;28;20213;-50
2023/01/13 01:48:45;;;;;;;1.00;1.00;;;;;;;8.84;100.00;97996.78;4137282;28;20292;-49
2023/01/13 01:50:47;;;;;;;1.58;0.90;;;;;;;8.86;100.00;97991.06;4133367;28;20272;-49
2023/01/13 01:52:57;;;;;;;0.90;0.90;;;;;;;8.84;100.00;97990.47;4137632;28;20301;-51
2023/01/13 01:55:15;;;;;;;0.70;0.70;;;;;;;8.85;100.00;97987.50;4138979;28;20283;-50
2023/01/13 01:57:23;;;;;;;0.80;0.80;;;;;;;8.82;100.00;97993.47;4136431;28;20192;-49
2023/01/13 01:59:28;;;;;;;1.30;1.20;;;;;;;8.87;100.00;97987.25;4136875;28;20749;-49
2023/01/13 02:01:32;;;;;;;1.02;0.90;;;;;;;8.89;100.00;98005.00;4137508;28;20236;-49
2023/01/13 02:03:36;;;;;;;2.00;1.00;;;;;;;8.80;100.00;98000.25;4135132;28;20216;-51
2023/01/13 02:05:38;;;;;;;0.60;0.60;;;;;;;8.86;100.00;97993.78;4136078;28;20229;-50
2023/01/13 02:07:41;;;;;;;0.55;0.55;;;;;;;8.86;100.00;97996.50;4134811;28;20790;-50
2023/01/13 02:09:43;;;;;;;0.88;0.88;;;;;;;8.89;100.00;97987.84;4136841;28;20976;-49
2023/01/13 02:14:06;;;;;;;0.90;0.90;;;;;;;8.83;100.00;97992.38;4135298;28;21132;-49
2023/01/13 02:16:15;;;;;;;1.08;1.08;;;;;;;8.85;100.00;97983.94;4133942;28;20208;-49
2023/01/13 02:18:29;;;;;;;1.42;1.30;;;;;;;8.88;100.00;97983.47;4148769;28;20204;-49
2023/01/13 02:20:49;;;;;;;0.95;0.95;;;;;;;8.87;100.00;97976.31;4151784;28;20690;-49
2023/01/13 02:23:03;;;;;;;1.02;1.02;;;;;;;8.87;100.00;97973.59;4136575;28;20233;-50
2023/01/13 02:25:06;;;;;;;0.95;0.95;;;;;;;8.85;100.00;97970.31;4150416;28;20319;-50
2023/01/13 02:27:42;;;;;;;0.77;0.77;;;;;;;8.82;100.00;97968.91;4136584;28;20213;-51
2023/01/13 02:32:38;;;;;;;1.05;1.05;;;;;;;8.89;100.00;97961.38;4131668;28;20216;-49
2023/01/13 02:34:54;;;;;;;0.90;0.90;;;;;;;8.87;100.00;97963.53;4135717;28;20297;-49
2023/01/13 02:37:11;;;;;;;0.80;0.80;;;;;;;8.86;100.00;97953.69;4137764;28;20260;-49
2023/01/13 02:39:28;;;;;;;1.33;0.90;;;;;;;8.85;100.00;97945.75;4135421;28;20292;-49
2023/01/13 02:44:05;;;;;;;0.75;0.75;;;;;;;8.86;100.00;97952.84;4134299;28;20560;-50
2023/01/13 02:46:14;;;;;;;0.80;0.80;;;;;;;8.79;100.00;97949.50;4135855;28;20307;-51
2023/01/13 02:48:18;;;;;;;0.68;0.68;;;;;;;8.77;100.00;97940.75;4151412;28;20311;-49
2023/01/13 02:50:26;;;;;;;0.70;0.70;;;;;;;8.78;100.00;97942.38;4115496;28;20664;-48
2023/01/13 02:52:39;;;;;;;3.22;1.35;;;;;;;8.77;100.00;97935.28;4135879;28;20662;-51
2023/01/13 02:54:45;;;;;;;0.60;0.60;;;;;;;8.76;100.00;97942.63;4133925;28;20626;-49
2023/01/13 02:56:49;;;;;;;0.70;0.70;;;;;;;8.79;100.00;97933.13;4137229;28;20558;-51
2023/01/13 02:58:53;;;;;;;0.60;0.60;;;;;;;8.78;100.00;97931.47;4136510;28;20245;-49
2023/01/13 03:00:54;;;;;;;0.77;0.77;;;;;;;8.77;100.00;97935.28;4130678;28;20712;-53
2023/01/13 03:02:56;;;;;;;0.77;0.77;;;;;;;8.80;100.00;97915.69;4133656;28;21870;-50
2023/01/13 03:04:59;;;;;;;1.05;0.60;;;;;;;8.80;100.00;97921.13;4122681;28;20225;-49
2023/01/13 03:07:11;;;;;;;1.10;1.02;;;;;;;8.79;100.00;97919.47;4138531;28;20252;-50
2023/01/13 03:09:28;;;;;;;1.08;1.08;;;;;;;8.83;100.00;97923.38;4137423;28;20213;-50
2023/01/13 03:11:38;;;;;;;1.45;0.98;;;;;;;8.80;100.00;97929.31;4137846;28;20222;-50
2023/01/13 03:13:55;;;;;;;0.75;0.75;;;;;;;8.78;100.00;97920.56;4136302;28;20217;-49
2023/01/13 03:16:33;;;;;;;0.70;0.70;;;;;;;8.82;100.00;97924.44;4137185;28;20210;-48
2023/01/13 03:19:06;;;;;;;0.70;0.70;;;;;;;8.78;100.00;97923.28;4135792;28;20209;-48
2023/01/13 03:21:17;;;;;;;0.90;0.90;;;;;;;8.79;100.00;97920.31;4135910;28;20260;-49
2023/01/13 03:23:50;;;;;;;0.80;0.80;;;;;;;8.80;100.00;97934.78;4133054;28;20217;-48
2023/01/13 03:25:58;;;;;;;0.70;0.70;;;;;;;8.77;100.00;97924.38;4148109;28;20769;-49
2023/01/13 03:28:18;;;;;;;0.70;0.70;;;;;;;8.75;100.00;97926.53;4136895;28;20209;-49
2023/01/13 03:30:19;;;;;;;0.75;0.75;;;;;;;8.78;100.00;97926.03;4132795;28;20206;-48
2023/01/13 03:32:41;;;;;;;0.75;0.75;;;;;;;8.78;100.00;97926.03;4136691;28;20253;-49
2023/01/13 03:35:01;;;;;;;0.68;0.68;;;;;;;8.78;100.00;97915.13;4137320;28;20243;-49
2023/01/13 03:37:06;;;;;;;0.50;0.50;;;;;;;8.75;100.00;97899.28;4151645;28;20818;-50
2023/01/13 03:39:15;;;;;;;0.60;0.60;;;;;;;8.75;100.00;97915.63;4135176;28;20615;-48
2023/01/13 03:41:42;;;;;;;4.22;0.77;;;;;;;8.75;100.00;97902.81;4136806;28;20244;-48
2023/01/13 03:46:18;;;;;;;0.63;0.63;;;;;;;8.77;100.00;97913.47;4134193;28;20217;-51
2023/01/13 03:48:21;;;;;;;0.60;0.60;;;;;;;8.77;100.00;97913.47;4133932;28;20202;-49
2023/01/13 03:50:27;;;;;;;0.70;0.70;;;;;;;8.79;100.00;97905.84;4136345;28;20638;-49
2023/01/13 03:52:35;;;;;;;0.70;0.70;;;;;;;8.78;100.00;97918.69;4133277;28;20751;-50
2023/01/13 03:54:44;;;;;;;0.68;0.68;;;;;;;8.75;100.00;97905.53;4137474;28;20319;-50
2023/01/13 03:56:50;;;;;;;0.50;0.50;;;;;;;8.77;100.00;97883.47;4118341;28;20205;-49
2023/01/13 03:58:53;;;;;;;0.88;0.88;;;;;;;8.80;100.00;97907.50;4134397;28;20267;-49
2023/01/13 04:01:13;;;;;;;0.75;0.70;;;;;;;8.77;100.00;97897.09;4130212;28;20646;-50
2023/01/13 04:03:21;;;;;;;0.70;0.70;;;;;;;8.76;100.00;97906.38;4136760;28;20738;-50
2023/01/13 04:05:24;;;;;;;1.52;0.80;;;;;;;8.76;100.00;97901.72;4149834;28;20799;-49
2023/01/13 04:07:26;;;;;;;0.70;0.70;;;;;;;8.78;100.00;97898.75;4122352;28;20206;-49
2023/01/13 04:09:50;;;;;;;1.00;1.00;;;;;;;8.73;100.00;97890.50;4145897;28;20215;-50
2023/01/13 04:11:56;;;;;;;0.80;0.70;;;;;;;8.73;100.00;97907.69;4147344;28;20297;-51
2023/01/13 04:13:59;;;;;;;0.75;0.75;;;;;;;8.76;100.00;97900.91;4167380;28;20593;-50
2023/01/13 04:16:00;;;;;;;0.70;0.70;;;;;;;8.77;100.00;97894.38;4136111;28;20566;-48
2023/01/13 04:18:09;;;;;;;2.28;0.70;;;;;;;8.73;100.00;97890.50;4136654;28;20202;-49
2023/01/13 04:20:11;;;;;;;0.80;0.80;;;;;;;8.72;100.00;97883.41;4151380;28;20231;-50
2023/01/13 04:22:13;;;;;;;0.80;0.80;;;;;;;8.75;100.00;97882.91;4134526;28;20805;-49
2023/01/13 04:24:15;;;;;;;0.80;0.80;;;;;;;8.77;100.00;97875.28;4137694;28;20789;-50
2023/01/13 04:26:18;;;;;;;0.80;0.80;;;;;;;8.77;100.00;97875.28;4118446;28;20245;-51
2023/01/13 04:28:20;;;;;;;2.25;1.13;;;;;;;8.75;100.00;97893.81;4131202;28;20789;-50
2023/01/13 04:30:22;;;;;;;1.00;1.00;;;;;;;8.78;100.00;97879.66;4134654;28;20300;-51
2023/01/13 04:32:24;;;;;;;1.15;1.08;;;;;;;8.78;100.00;97879.66;4135877;28;20229;-50
2023/01/13 04:34:26;;;;;;;1.08;0.98;;;;;;;8.74;100.00;97887.53;4133018;28;20296;-49
2023/01/13 04:36:29;;;;;;;0.80;0.80;;;;;;;8.73;100.00;97874.13;4137942;28;20207;-51
2023/01/13 04:38:30;;;;;;;1.05;0.93;;;;;;;8.74;100.00;97876.59;4138062;28;20237;-49
2023/01/13 04:40:32;;;;;;;0.85;0.85;;;;;;;8.75;100.00;97882.91;4137165;28;20332;-51
2023/01/13 04:42:34;;;;;;;0.93;0.93;;;;;;;8.73;100.00;97879.59;4137091;28;20205;-50
2023/01/13 04:44:36;;;;;;;0.80;0.80;;;;;;;8.77;100.00;97886.19;4118781;28;20232;-50
2023/01/13 04:46:37;;;;;;;0.70;0.70;;;;;;;8.73;100.00;97882.31;4135461;28;20698;-50
2023/01/13 04:48:39;;;;;;;0.93;0.90;;;;;;;8.75;100.00;97880.19;4131049;28;20221;-50
2023/01/13 04:50:41;;;;;;;1.77;0.80;;;;;;;8.82;100.00;97883.53;4135425;28;20564;-51
2023/01/13 04:52:45;;;;;;;0.65;0.65;;;;;;;8.82;100.00;97899.91;4136192;28;20781;-51
2023/01/13 04:54:47;;;;;;;0.75;0.75;;;;;;;8.82;100.00;97883.53;4136031;28;20213;-51
2023/01/13 04:56:48;;;;;;;1.17;0.80;;;;;;;8.79;100.00;97875.84;4137355;28;20209;-51
2023/01/13 04:58:50;;;;;;;1.23;0.88;;;;;;;8.76;100.00;97865.47;4136017;28;20221;-51
2023/01/13 05:00:53;;;;;;;1.52;0.90;;;;;;;8.72;100.00;97867.03;4136548;28;20635;-50
2023/01/13 05:02:55;;;;;;;0.95;0.95;;;;;;;8.73;100.00;97868.66;4135608;28;20291;-50
2023/01/13 05:04:57;;;;;;;1.50;0.80;;;;;;;8.74;100.00;97870.34;4135717;28;21060;-50
2023/01/13 05:06:59;;;;;;;0.70;0.70;;;;;;;8.74;100.00;97875.81;4137917;28;20217;-48
2023/01/13 05:09:02;;;;;;;0.85;0.85;;;;;;;8.74;100.00;97881.25;4138060;28;20312;-49
2023/01/13 05:16:58;;;;;;;1.08;0.95;;;;;;;8.75;100.00;97882.91;4135988;28;20700;-48
2023/01/13 05:18:07;;;;;;;0.88;0.88;;;;;;;8.76;100.00;97873.63;4134211;28;20213;-50
2023/01/13 05:20:11;;;;;;;1.15;0.85;;;;;;;8.72;100.00;97872.50;4134512;28;20335;-50
2023/01/13 05:26:53;;;;;;;3.38;1.08;;;;;;;8.62;100.00;97888.72;4135251;28;20243;-50
2023/01/13 05:28:55;;;;;;;0.90;0.90;;;;;;;8.60;100.00;97885.41;4152340;28;20244;-49
2023/01/13 05:30:57;;;;;;;1.13;0.88;;;;;;;8.57;100.00;97886.78;4140327;28;20257;-49
2023/01/13 05:32:59;;;;;;;2.75;0.70;;;;;;;8.55;100.00;97896.28;4136912;28;20300;-51
2023/01/13 05:35:00;;;;;;;0.90;0.90;;;;;;;8.55;100.00;97893.56;4129353;28;20222;-50
2023/01/13 05:37:04;;;;;;;0.70;0.70;;;;;;;8.52;100.00;97900.31;4146456;28;20208;-49
2023/01/13 05:39:06;;;;;;;2.72;0.70;;;;;;;8.57;100.00;97903.13;4134674;28;20247;-49
2023/01/13 05:43:29;;;;;;;0.93;0.80;;;;;;;8.53;100.00;97925.69;4137007;28;20201;-50
2023/01/13 05:45:31;;;;;;;0.60;0.60;;;;;;;8.54;100.00;97930.06;4146608;28;20394;-51
2023/01/13 05:47:33;;;;;;;0.90;0.90;;;;;;;8.54;100.00;97963.59;4133342;28;20295;-50
2023/01/13 05:49:35;;;;;;;0.80;0.80;;;;;;;8.58;100.00;97966.66;4132820;28;20233;-51
2023/01/13 05:51:36;;;;;;;0.77;0.77;;;;;;;8.53;100.00;97966.56;4129341;28;20275;-51
2023/01/13 05:53:42;;;;;;;1.00;0.80;;;;;;;8.57;100.00;97979.47;4131880;28;20244;-50
2023/01/13 05:55:44;;;;;;;0.95;0.85;;;;;;;8.50;100.00;97986.16;4133953;28;20608;-50
2023/01/13 05:57:48;;;;;;;0.90;0.90;;;;;;;8.48;100.00;97977.44;4134159;28;20242;-51
2023/01/13 05:59:50;;;;;;;0.52;0.52;;;;;;;8.45;100.00;97983.38;4135421;28;20212;-49
2023/01/13 06:01:52;;;;;;;0.80;0.80;;;;;;;8.48;100.00;97991.88;4133872;28;20811;-51
2023/01/13 06:03:54;;;;;;;0.88;0.80;;;;;;;8.37;100.00;97978.34;4116401;28;20226;-50
2023/01/13 06:06:00;;;;;;;0.70;0.70;;;;;;;8.36;100.00;97984.88;4161479;28;20324;-51
2023/01/13 06:08:04;;;;;;;0.80;0.80;;;;;;;8.35;100.00;97996.84;4136195;28;20218;-50
2023/01/13 06:10:06;;;;;;;0.77;0.77;;;;;;;8.27;100.00;97999.97;4131832;28;20234;-50
2023/01/13 06:12:12;;;;;;;0.65;0.65;;;;;;;8.25;100.00;98007.56;4133581;28;20230;-49
2023/01/13 06:14:14;;;;;;;0.60;0.60;;;;;;;8.21;100.00;98003.72;4133930;28;20561;-50
2023/01/13 06:16:16;;;;;;;0.55;0.55;;;;;;;8.21;100.00;97990.09;4151735;28;20232;-50
2023/01/13 06:18:18;;;;;;;0.80;0.75;;;;;;;8.13;100.00;97991.28;4137697;28;20295;-50
2023/01/13 06:20:19;;;;;;;1.50;0.60;;;;;;;8.10;100.00;97994.47;4136602;28;20782;-50
2023/01/13 06:22:31;;;;;;;0.50;0.50;;;;;;;8.14;100.00;97992.94;4136466;28;20279;-50
2023/01/13 06:24:33;;;;;;;0.77;0.50;;;;;;;8.06;100.00;97997.94;4135341;28;20218;-50
2023/01/13 06:26:39;;;;;;;0.88;0.88;;;;;;;7.98;100.00;98007.38;4148132;28;20320;-50
2023/01/13 06:28:41;;;;;;;1.17;0.70;;;;;;;8.01;100.00;97992.44;4149851;28;20303;-50
2023/01/13 06:30:53;;;;;;;0.63;0.63;;;;;;;7.99;100.00;98000.00;4135562;28;20594;-50
2023/01/13 06:32:57;;;;;;;0.70;0.70;;;;;;;7.96;100.00;97992.34;4133860;28;20228;-50
2023/01/13 06:35:05;;;;;;;0.60;0.60;;;;;;;7.93;100.00;97995.53;4135044;28;20297;-50
2023/01/13 06:37:07;;;;;;;0.60;0.60;;;;;;;7.90;100.00;97998.78;4135880;28;20198;-50
2023/01/13 06:39:09;;;;;;;0.75;0.75;;;;;;;7.89;100.00;97999.84;4137741;28;20214;-51
2023/01/13 06:41:11;;;;;;;0.60;0.60;;;;;;;7.93;100.00;98015.44;4139416;28;21963;-52
2023/01/13 06:43:16;;;;;;;0.70;0.70;;;;;;;7.87;100.00;98015.59;4168422;28;20238;-52
2023/01/13 06:45:18;;;;;;;1.38;1.27;;;;;;;7.83;100.00;98014.44;4135607;28;20667;-49
2023/01/13 06:47:21;;;;;;;0.70;0.70;;;;;;;7.79;100.00;98024.16;4139558;28;20229;-49
2023/01/13 06:49:23;;;;;;;0.70;0.70;;;;;;;7.82;100.00;98032.66;4138105;28;20220;-48
2023/01/13 06:51:25;;;;;;;0.60;0.60;;;;;;;7.77;100.00;98023.59;4136207;28;20806;-48
2023/01/13 06:53:26;;;;;;;0.60;0.60;;;;;;;7.76;100.00;98024.66;4150038;28;20328;-49
2023/01/13 06:55:28;;;;;;;1.17;0.70;;;;;;;7.70;100.00;98009.31;4136054;28;20209;-49
2023/01/13 06:57:30;;;;;;;0.50;0.50;;;;;;;7.70;100.00;98009.31;4138165;28;20213;-49
2023/01/13 06:59:35;;;;;;;0.75;0.75;;;;;;;7.62;100.00;98018.69;4141404;28;20205;-49
2023/01/13 07:01:36;;;;;;;0.80;0.80;;;;;;;7.63;100.00;98022.25;4133702;28;20249;-50
2023/01/13 07:03:39;;;;;;;0.70;0.68;;;;;;;7.63;100.00;98030.41;4139261;28;20221;-50
2023/01/13 07:05:51;;;;;;;2.20;0.80;;;;;;;7.55;100.00;98036.25;4118231;28;20218;-49
2023/01/13 07:07:53;;;;;;;1.75;1.13;;;;;;;7.57;100.00;98036.81;4137027;28;20241;-49
2023/01/13 07:09:54;;;;;;;1.10;1.10;;;;;;;7.56;100.00;98018.84;4136128;28;20648;-49
2023/01/13 07:11:56;;;;;;;1.48;1.13;;;;;;;7.48;100.00;98016.50;4132306;28;20229;-49
2023/01/13 07:16:22;;;;;;;0.98;0.82;;;;;;;7.47;100.00;98026.56;4133756;28;20607;-50
2023/01/13 07:18:46;;;;;;;1.25;0.77;;;;;;;7.44;100.00;98015.31;4136311;28;20643;-49
2023/01/13 07:20:55;;;;;;;0.65;0.65;;;;;;;7.42;100.00;98012.84;4150828;28;20256;-49
2023/01/13 07:22:57;;;;;;;0.70;0.70;;;;;;;7.39;100.00;98001.63;4134822;28;20232;-49
2023/01/13 07:24:59;;;;;;;1.38;0.90;;;;;;;7.37;100.00;97998.31;4135775;28;20284;-49
2023/01/13 07:27:01;;;;;;;1.05;0.70;;;;;;;7.37;100.00;97998.31;4129497;28;20225;-49
2023/01/13 07:29:03;;;;;;;0.70;0.70;;;;;;;7.34;100.00;97996.06;4129670;28;20205;-50
2023/01/13 07:31:11;;;;;;;0.80;0.80;;;;;;;7.32;100.00;98011.81;4129454;28;20670;-50
2023/01/13 07:33:21;;;;;;;0.60;0.60;;;;;;;7.25;100.00;98033.75;4127774;28;20205;-49
2023/01/13 07:35:23;;;;;;;1.17;0.80;;;;;;;7.38;100.00;98040.78;4136484;28;20212;-49
2023/01/13 07:37:25;;;;;;;3.22;0.70;;;;;;;7.29;100.00;98043.06;4138311;28;20568;-49
2023/01/13 07:39:27;;;;;;;0.80;0.80;;;;;;;7.34;100.00;98045.88;4134160;28;20629;-50
2023/01/13 07:43:50;;;;;;;0.95;0.73;;;;;;;7.35;100.00;98052.97;4136886;28;20206;-49
2023/01/13 07:45:57;;;;;;;3.55;0.95;;;;;;;7.37;100.00;98048.13;4137760;28;20213;-50
2023/01/13 07:48:02;;;;;;;1.35;0.90;;;;;;;7.45;100.00;98066.81;4133860;28;20740;-50
2023/01/13 07:50:05;;;;;;;0.63;0.63;;;;;;;7.44;100.00;98059.72;4136450;28;20271;-50
2023/01/13 07:52:07;;;;;;;1.65;0.75;;;;;;;7.44;100.00;98064.31;4138485;28;20229;-51
2023/01/13 07:54:09;;;;;;;1.02;0.57;;;;;;;7.44;100.00;98064.31;4135751;28;20264;-49
2023/01/13 07:56:11;;;;;;;3.67;0.80;;;;;;;7.39;100.00;98072.38;4150935;28;20232;-49
2023/01/13 07:58:13;;;;;;;0.75;0.68;;;;;;;7.47;100.00;98064.66;4140494;28;20209;-50
2023/01/13 08:00:15;;;;;;;1.77;0.85;;;;;;;7.44;100.00;98075.22;4135401;28;20255;-50
2023/01/13 08:02:17;;;;;;;1.10;1.10;;;;;;;7.48;100.00;98071.75;4131841;28;20265;-50
2023/01/13 08:04:19;;;;;;;0.70;0.70;;;;;;;7.48;100.00;98073.66;4135626;28;20217;-51
2023/01/13 08:06:22;;;;;;;1.02;0.98;;;;;;;7.54;100.00;98091.72;4134880;28;20233;-51
2023/01/13 08:08:24;;;;;;;1.00;1.00;;;;;;;7.53;100.00;98084.63;4147925;28;20292;-50
2023/01/13 08:10:25;;;;;;;1.88;1.30;;;;;;;7.56;100.00;98084.19;4133956;28;20580;-50
2023/01/13 08:14:55;;;;;;;0.88;0.88;;;;;;;7.51;100.00;98087.63;4126994;28;20302;-50
2023/01/13 08:16:57;;;;;;;1.05;0.80;;;;;;;7.54;100.00;98091.72;4130897;28;20490;-58
2023/01/13 08:18:59;;;;;;;1.85;0.93;;;;;;;7.47;100.00;98096.50;4130963;28;20229;-57
2023/01/13 08:21:11;;;;;;;0.80;0.80;;;;;;;7.47;100.00;98085.59;4127309;28;20226;-46
2023/01/13 08:23:23;;;;;;;3.53;1.15;;;;;;;7.54;100.00;98091.72;4132764;28;20275;-47
2023/01/13 08:25:35;;;;;;;1.73;1.08;;;;;;;7.57;100.00;98096.72;4121283;28;20690;-47
2023/01/13 08:27:43;;;;;;;0.90;0.90;;;;;;;7.60;100.00;98098.94;4147159;28;20599;-47
2023/01/13 08:29:45;;;;;;;1.10;0.90;;;;;;;7.60;100.00;98093.50;4135127;28;20210;-46
2023/01/13 08:31:47;;;;;;;1.42;0.82;;;;;;;7.63;100.00;98102.00;4135430;28;20233;-47
2023/01/13 08:33:49;;;;;;;1.23;0.93;;;;;;;7.62;100.00;98105.00;4118232;28;20233;-47
2023/01/13 08:35:52;;;;;;;1.55;0.90;;;;;;;7.65;100.00;98107.22;4149964;28;20299;-47
2023/01/13 08:37:53;;;;;;;4.53;0.90;;;;;;;7.69;100.00;98105.69;4133190;28;20244;-47
2023/01/13 08:39:55;;;;;;;1.10;0.90;;;;;;;7.66;100.00;98114.31;4142637;28;20567;-47
2023/01/13 08:41:57;;;;;;;1.23;1.13;;;;;;;7.66;100.00;98133.38;4139531;28;21039;-47
2023/01/13 08:43:59;;;;;;;1.95;1.00;;;;;;;7.68;100.00;98120.38;4139544;28;20570;-46
2023/01/13 08:46:03;;;;;;;1.95;1.20;;;;;;;7.62;100.00;98127.59;4136040;28;20588;-48
2023/01/13 08:48:05;;;;;;;1.45;1.08;;;;;;;7.62;100.00;98132.22;4140372;28;20213;-47
2023/01/13 08:50:08;;;;;;;1.17;1.08;;;;;;;7.62;100.00;98121.31;4136547;28;20236;-47
2023/01/13 08:52:10;;;;;;;0.80;0.80;;;;;;;7.59;100.00;98129.97;4141975;28;20240;-47
2023/01/13 08:54:11;;;;;;;1.70;1.60;;;;;;;7.63;100.00;98133.88;4137911;28;20214;-47
2023/01/13 08:56:13;;;;;;;1.75;0.93;;;;;;;7.62;100.00;98126.78;4135345;28;20221;-47
2023/01/13 08:58:15;;;;;;;1.23;1.05;;;;;;;7.54;100.00;98135.28;4136962;28;20213;-47
2023/01/13 09:00:17;;;;;;;1.35;1.25;;;;;;;7.64;100.00;98130.06;4136678;28;20289;-47
2023/01/13 09:02:21;;;;;;;3.55;1.23;;;;;;;7.62;100.00;98122.13;4137083;28;20279;-47
2023/01/13 09:04:24;;;;;;;3.63;1.80;;;;;;;7.62;100.00;98140.38;4150998;28;20220;-47
2023/01/13 09:06:29;;;;;;;0.60;0.60;;;;;;;7.55;100.00;98136.97;4138286;28;20548;-47
2023/01/13 09:08:30;;;;;;;1.40;0.90;;;;;;;7.57;100.00;98137.56;4141326;28;20300;-47
2023/01/13 09:10:32;;;;;;;1.30;1.20;;;;;;;7.55;100.00;98147.84;4144266;28;21035;-47
2023/01/13 09:14:54;;;;;;;0.88;0.88;;;;;;;7.58;100.00;98144.66;4131983;28;20224;-47
2023/01/13 09:16:56;;;;;;;2.17;2.05;;;;;;;7.60;100.00;98145.22;4134637;28;20217;-47
2023/01/13 09:18:58;;;;;;;2.33;0.90;;;;;;;7.65;100.00;98154.34;4133153;28;20209;-47
2023/01/13 09:21:00;;;;;;;1.50;1.40;;;;;;;7.63;100.00;98159.19;4136354;28;20719;-47
2023/01/13 09:23:03;;;;;;;4.55;1.15;;;;;;;7.66;100.00;98166.03;4131990;28;22113;-46
2023/01/13 09:25:09;;;;;;;1.02;0.90;;;;;;;7.71;100.00;98177.06;4130241;28;20218;-47
2023/01/13 09:27:12;;;;;;;1.65;0.95;;;;;;;7.71;100.00;98174.34;4137781;28;20318;-47
2023/01/13 09:29:14;;;;;;;2.17;1.30;;;;;;;7.68;100.00;98175.63;4137619;28;20244;-46
2023/01/13 09:31:16;;;;;;;1.83;1.23;;;;;;;7.73;100.00;98172.19;4136652;28;20245;-46
2023/01/13 09:35:38;;;;;;;1.20;1.00;;;;;;;7.73;100.00;98177.63;4131603;28;20332;-46
2023/01/13 09:37:40;;;;;;;3.25;1.42;;;;;;;7.76;100.00;98179.91;4130027;28;20234;-46
2023/01/13 09:39:42;;;;;;;2.38;0.93;;;;;;;7.75;100.00;98189.13;4150677;28;20327;-47
2023/01/13 09:44:15;;;;;;;1.33;1.00;;;;;;;7.77;100.00;98176.09;4138091;28;20280;-46
2023/01/13 09:48:50;;;;;;;2.17;0.77;;;;;;;7.80;100.00;98184.63;4136520;28;20206;-46
2023/01/13 09:51:13;;;;;;;3.25;1.95;;;;;;;7.86;100.00;98188.25;4134919;28;20239;-47
2023/01/13 09:53:22;;;;;;;1.10;1.00;;;;;;;7.91;100.00;98196.53;4151682;28;20679;-47
2023/01/13 09:55:35;;;;;;;2.72;1.05;;;;;;;7.96;100.00;98193.94;4150356;28;20213;-47
2023/01/13 09:57:38;;;;;;;6.82;1.25;;;;;;;8.03;100.00;98189.16;4140840;28;20263;-47
2023/01/13 09:59:41;;;;;;;8.07;1.35;;;;;;;8.09;100.00;98188.22;4136521;28;20272;-46
2023/01/13 10:01:58;;;;;;;3.25;1.42;;;;;;;8.18;100.00;98194.91;4120529;28;20232;-47
2023/01/13 10:04:16;;;;;;;2.17;1.40;;;;;;;8.21;100.00;98199.94;4139370;28;20272;-47
2023/01/13 10:06:33;;;;;;;8.55;2.28;;;;;;;8.12;100.00;98204.91;4137567;28;20222;-46
2023/01/13 10:08:40;;;;;;;4.93;1.50;;;;;;;8.22;100.00;98196.13;4137471;28;20299;-47
2023/01/13 10:10:45;;;;;;;3.47;1.40;;;;;;;8.15;100.00;98204.41;4141677;28;20225;-47
2023/01/13 10:15:16;;;;;;;0.95;0.95;;;;;;;8.10;100.00;98207.00;4136680;28;20201;-47
2023/01/13 10:17:58;;;;;;;1.55;1.45;;;;;;;8.08;100.00;98202.91;4137235;28;20256;-47
2023/01/13 10:20:23;;;;;;;2.78;1.20;;;;;;;8.10;100.00;98206.22;4073170;29;20216;-47
2023/01/13 10:22:50;;;;;;;2.00;1.38;;;;;;;8.02;100.00;98198.41;4101167;28;20659;-47
2023/01/13 10:25:30;;;;;;;6.25;2.30;;;;;;;8.06;100.00;98199.56;4134642;28;20228;-46
2023/01/13 10:27:35;;;;;;;4.35;1.27;;;;;;;8.01;100.00;98210.41;4088355;28;20297;-47
2023/01/13 10:29:37;;;;;;;5.35;1.38;;;;;;;8.11;100.00;98207.84;4119020;28;20244;-47
2023/01/13 10:31:39;;;;;;;7.72;2.58;;;;;;;8.20;100.00;98212.72;4135559;28;20233;-47
2023/01/13 10:33:41;;;;;;;2.60;1.17;;;;;;;8.23;100.00;98208.69;4151001;28;20217;-47
2023/01/13 10:35:53;;;;;;;2.38;1.40;;;;;;;8.29;100.00;98210.44;4134268;28;20241;-47
2023/01/13 10:37:56;;;;;;;2.17;1.23;;;;;;;8.95;100.00;98199.66;4150607;28;20259;-47